sensor_id;sensor_type;location;lat;lon;timestamp;P1;durP1;ratioP1;P2;durP2;ratioP2
37647;SDS011;23490;53.656;10.076;2023-02-26T00:02:08;3.30;;;0.95;;
37647;SDS011;23490;53.656;10.076;2023-02-26T00:04:35;8.20;;;1.00;;
37647;SDS011;23490;53.656;10.076;2023-02-26T00:07:01;3.67;;;1.08;;
37647;SDS011;23490;53.656;10.076;2023-02-26T00:09:28;4.78;;;1.42;;
37647;SDS011;23490;53.656;10.076;2023-02-26T00:11:54;7.22;;;1.55;;
37647;SDS011;23490;53.656;10.076;2023-02-26T00:14:19;5.63;;;1.85;;
37647;SDS011;23490;53.656;10.076;2023-02-26T00:16:46;6.32;;;1.77;;
37647;SDS011;23490;53.656;10.076;2023-02-26T00:19:15;4.75;;;1.38;;
37647;SDS011;23490;53.656;10.076;2023-02-26T00:21:41;4.00;;;1.30;;
37647;SDS011;23490;53.656;10.076;2023-02-26T00:24:07;6.00;;;2.10;;
37647;SDS011;23490;53.656;10.076;2023-02-26T00:26:32;10.85;;;1.95;;
37647;SDS011;23490;53.656;10.076;2023-02-26T00:28:59;4.13;;;1.05;;
37647;SDS011;23490;53.656;10.076;2023-02-26T00:31:24;4.03;;;1.42;;
37647;SDS011;23490;53.656;10.076;2023-02-26T00:33:52;2.97;;;1.13;;
37647;SDS011;23490;53.656;10.076;2023-02-26T00:42:03;3.38;;;0.80;;
37647;SDS011;23490;53.656;10.076;2023-02-26T00:44:29;5.45;;;1.10;;
37647;SDS011;23490;53.656;10.076;2023-02-26T00:46:58;2.28;;;0.80;;
37647;SDS011;23490;53.656;10.076;2023-02-26T00:49:38;2.53;;;1.00;;
37647;SDS011;23490;53.656;10.076;2023-02-26T00:52:12;4.03;;;1.27;;
37647;SDS011;23490;53.656;10.076;2023-02-26T00:54:43;2.92;;;1.05;;
37647;SDS011;23490;53.656;10.076;2023-02-26T00:57:09;3.25;;;1.13;;
37647;SDS011;23490;53.656;10.076;2023-02-26T00:59:34;9.95;;;1.67;;
37647;SDS011;23490;53.656;10.076;2023-02-26T01:01:59;4.82;;;1.48;;
37647;SDS011;23490;53.656;10.076;2023-02-26T01:04:25;3.85;;;1.10;;
37647;SDS011;23490;53.656;10.076;2023-02-26T01:06:54;6.82;;;1.23;;
37647;SDS011;23490;53.656;10.076;2023-02-26T01:09:25;4.05;;;1.20;;
37647;SDS011;23490;53.656;10.076;2023-02-26T01:11:54;4.38;;;1.13;;
37647;SDS011;23490;53.656;10.076;2023-02-26T01:14:21;4.82;;;1.17;;
37647;SDS011;23490;53.656;10.076;2023-02-26T01:19:30;3.70;;;1.25;;
37647;SDS011;23490;53.656;10.076;2023-02-26T01:22:14;5.85;;;1.58;;
37647;SDS011;23490;53.656;10.076;2023-02-26T01:24:43;3.15;;;1.13;;
37647;SDS011;23490;53.656;10.076;2023-02-26T01:27:12;4.20;;;1.13;;
37647;SDS011;23490;53.656;10.076;2023-02-26T01:29:38;3.15;;;0.90;;
37647;SDS011;23490;53.656;10.076;2023-02-26T01:32:05;6.03;;;1.58;;
37647;SDS011;23490;53.656;10.076;2023-02-26T01:34:47;2.72;;;0.75;;
37647;SDS011;23490;53.656;10.076;2023-02-26T01:40:41;9.63;;;1.10;;
37647;SDS011;23490;53.656;10.076;2023-02-26T01:43:25;2.78;;;0.75;;
37647;SDS011;23490;53.656;10.076;2023-02-26T01:46:01;2.38;;;0.70;;
37647;SDS011;23490;53.656;10.076;2023-02-26T01:51:02;1.52;;;0.70;;
37647;SDS011;23490;53.656;10.076;2023-02-26T01:53:28;4.35;;;1.00;;
37647;SDS011;23490;53.656;10.076;2023-02-26T01:56:00;2.22;;;0.35;;
37647;SDS011;23490;53.656;10.076;2023-02-26T01:58:31;4.60;;;0.98;;
37647;SDS011;23490;53.656;10.076;2023-02-26T02:00:58;4.68;;;0.70;;
37647;SDS011;23490;53.656;10.076;2023-02-26T02:03:24;1.33;;;0.52;;
37647;SDS011;23490;53.656;10.076;2023-02-26T02:06:25;2.35;;;0.60;;
37647;SDS011;23490;53.656;10.076;2023-02-26T02:08:48;1.92;;;0.90;;
37647;SDS011;23490;53.656;10.076;2023-02-26T02:11:13;2.67;;;0.60;;
37647;SDS011;23490;53.656;10.076;2023-02-26T02:13:40;1.45;;;0.65;;
37647;SDS011;23490;53.656;10.076;2023-02-26T02:16:19;3.05;;;0.73;;
37647;SDS011;23490;53.656;10.076;2023-02-26T02:18:59;2.58;;;1.25;;
37647;SDS011;23490;53.656;10.076;2023-02-26T02:22:00;2.22;;;0.90;;
37647;SDS011;23490;53.656;10.076;2023-02-26T02:33:35;3.63;;;1.10;;
37647;SDS011;23490;53.656;10.076;2023-02-26T02:39:00;1.48;;;0.77;;
37647;SDS011;23490;53.656;10.076;2023-02-26T02:41:49;2.72;;;0.85;;
37647;SDS011;23490;53.656;10.076;2023-02-26T02:44:37;3.65;;;0.90;;
37647;SDS011;23490;53.656;10.076;2023-02-26T02:47:05;4.72;;;1.30;;
37647;SDS011;23490;53.656;10.076;2023-02-26T02:49:35;3.28;;;0.90;;
37647;SDS011;23490;53.656;10.076;2023-02-26T02:52:07;3.35;;;1.00;;
37647;SDS011;23490;53.656;10.076;2023-02-26T02:54:39;1.90;;;0.73;;
37647;SDS011;23490;53.656;10.076;2023-02-26T02:57:13;2.47;;;1.10;;
37647;SDS011;23490;53.656;10.076;2023-02-26T02:59:51;3.25;;;0.88;;
37647;SDS011;23490;53.656;10.076;2023-02-26T03:04:57;3.17;;;0.70;;
37647;SDS011;23490;53.656;10.076;2023-02-26T03:07:30;1.92;;;0.90;;
37647;SDS011;23490;53.656;10.076;2023-02-26T03:10:00;1.98;;;0.85;;
37647;SDS011;23490;53.656;10.076;2023-02-26T03:12:30;2.78;;;0.75;;
37647;SDS011;23490;53.656;10.076;2023-02-26T03:14:56;1.33;;;0.45;;
37647;SDS011;23490;53.656;10.076;2023-02-26T03:17:29;1.75;;;0.52;;
37647;SDS011;23490;53.656;10.076;2023-02-26T03:23:11;2.55;;;0.63;;
37647;SDS011;23490;53.656;10.076;2023-02-26T03:25:54;3.15;;;1.17;;
37647;SDS011;23490;53.656;10.076;2023-02-26T03:28:30;4.60;;;0.90;;
37647;SDS011;23490;53.656;10.076;2023-02-26T03:33:56;4.22;;;1.00;;
37647;SDS011;23490;53.656;10.076;2023-02-26T03:36:28;2.65;;;0.80;;
37647;SDS011;23490;53.656;10.076;2023-02-26T03:41:50;3.75;;;0.73;;
37647;SDS011;23490;53.656;10.076;2023-02-26T03:44:24;3.42;;;0.80;;
37647;SDS011;23490;53.656;10.076;2023-02-26T03:46:56;3.22;;;1.10;;
37647;SDS011;23490;53.656;10.076;2023-02-26T03:49:28;5.15;;;1.08;;
37647;SDS011;23490;53.656;10.076;2023-02-26T03:51:58;7.25;;;0.80;;
37647;SDS011;23490;53.656;10.076;2023-02-26T03:54:27;2.88;;;0.77;;
37647;SDS011;23490;53.656;10.076;2023-02-26T03:56:56;5.00;;;1.15;;
37647;SDS011;23490;53.656;10.076;2023-02-26T03:59:22;4.07;;;0.80;;
37647;SDS011;23490;53.656;10.076;2023-02-26T04:04:33;2.80;;;0.90;;
37647;SDS011;23490;53.656;10.076;2023-02-26T04:07:06;2.75;;;0.80;;
37647;SDS011;23490;53.656;10.076;2023-02-26T04:09:33;3.22;;;0.63;;
37647;SDS011;23490;53.656;10.076;2023-02-26T04:11:58;3.22;;;0.82;;
37647;SDS011;23490;53.656;10.076;2023-02-26T04:14:24;6.85;;;1.15;;
37647;SDS011;23490;53.656;10.076;2023-02-26T04:16:49;5.45;;;1.10;;
37647;SDS011;23490;53.656;10.076;2023-02-26T04:19:14;1.90;;;0.60;;
37647;SDS011;23490;53.656;10.076;2023-02-26T04:21:39;3.47;;;0.90;;
37647;SDS011;23490;53.656;10.076;2023-02-26T04:24:06;2.38;;;0.73;;
37647;SDS011;23490;53.656;10.076;2023-02-26T04:26:31;3.72;;;1.00;;
37647;SDS011;23490;53.656;10.076;2023-02-26T04:28:57;4.25;;;0.80;;
37647;SDS011;23490;53.656;10.076;2023-02-26T04:31:23;4.25;;;1.23;;
37647;SDS011;23490;53.656;10.076;2023-02-26T04:33:48;1.50;;;0.65;;
37647;SDS011;23490;53.656;10.076;2023-02-26T04:36:13;3.17;;;0.77;;
37647;SDS011;23490;53.656;10.076;2023-02-26T04:38:39;4.90;;;0.95;;
37647;SDS011;23490;53.656;10.076;2023-02-26T04:41:06;5.45;;;0.90;;
37647;SDS011;23490;53.656;10.076;2023-02-26T04:43:31;2.83;;;0.80;;
37647;SDS011;23490;53.656;10.076;2023-02-26T04:45:57;4.63;;;1.00;;
37647;SDS011;23490;53.656;10.076;2023-02-26T04:48:22;4.50;;;1.00;;
37647;SDS011;23490;53.656;10.076;2023-02-26T04:50:48;2.08;;;0.90;;
37647;SDS011;23490;53.656;10.076;2023-02-26T04:53:14;2.42;;;0.68;;
37647;SDS011;23490;53.656;10.076;2023-02-26T04:55:39;1.38;;;0.57;;
37647;SDS011;23490;53.656;10.076;2023-02-26T04:58:05;2.80;;;0.90;;
37647;SDS011;23490;53.656;10.076;2023-02-26T05:00:31;2.53;;;0.70;;
37647;SDS011;23490;53.656;10.076;2023-02-26T05:02:56;2.58;;;0.75;;
37647;SDS011;23490;53.656;10.076;2023-02-26T05:05:22;3.78;;;0.70;;
37647;SDS011;23490;53.656;10.076;2023-02-26T05:07:48;1.85;;;0.60;;
37647;SDS011;23490;53.656;10.076;2023-02-26T05:10:14;3.17;;;0.68;;
37647;SDS011;23490;53.656;10.076;2023-02-26T05:12:39;1.83;;;0.52;;
37647;SDS011;23490;53.656;10.076;2023-02-26T05:15:05;2.08;;;0.90;;
37647;SDS011;23490;53.656;10.076;2023-02-26T05:17:31;2.75;;;0.85;;
37647;SDS011;23490;53.656;10.076;2023-02-26T05:19:57;2.05;;;0.80;;
37647;SDS011;23490;53.656;10.076;2023-02-26T05:22:22;2.80;;;0.80;;
37647;SDS011;23490;53.656;10.076;2023-02-26T05:24:48;3.08;;;0.70;;
37647;SDS011;23490;53.656;10.076;2023-02-26T05:27:14;3.47;;;0.70;;
37647;SDS011;23490;53.656;10.076;2023-02-26T05:29:39;6.25;;;0.68;;
37647;SDS011;23490;53.656;10.076;2023-02-26T05:32:06;3.67;;;0.90;;
37647;SDS011;23490;53.656;10.076;2023-02-26T05:34:32;3.10;;;1.00;;
37647;SDS011;23490;53.656;10.076;2023-02-26T05:36:57;4.10;;;1.20;;
37647;SDS011;23490;53.656;10.076;2023-02-26T05:39:23;1.50;;;0.80;;
37647;SDS011;23490;53.656;10.076;2023-02-26T05:41:49;2.63;;;0.93;;
37647;SDS011;23490;53.656;10.076;2023-02-26T05:44:15;5.22;;;0.90;;
37647;SDS011;23490;53.656;10.076;2023-02-26T05:46:41;3.78;;;1.00;;
37647;SDS011;23490;53.656;10.076;2023-02-26T05:49:07;4.63;;;0.85;;
37647;SDS011;23490;53.656;10.076;2023-02-26T05:51:33;3.22;;;1.35;;
37647;SDS011;23490;53.656;10.076;2023-02-26T05:53:58;1.98;;;0.60;;
37647;SDS011;23490;53.656;10.076;2023-02-26T05:56:24;2.90;;;0.90;;
37647;SDS011;23490;53.656;10.076;2023-02-26T05:58:49;1.73;;;0.75;;
37647;SDS011;23490;53.656;10.076;2023-02-26T06:01:16;3.95;;;0.90;;
37647;SDS011;23490;53.656;10.076;2023-02-26T06:03:41;1.98;;;0.70;;
37647;SDS011;23490;53.656;10.076;2023-02-26T06:06:09;4.90;;;0.88;;
37647;SDS011;23490;53.656;10.076;2023-02-26T06:08:35;3.95;;;1.17;;
37647;SDS011;23490;53.656;10.076;2023-02-26T06:11:01;2.92;;;1.05;;
37647;SDS011;23490;53.656;10.076;2023-02-26T06:13:26;4.63;;;0.90;;
37647;SDS011;23490;53.656;10.076;2023-02-26T06:15:51;5.18;;;1.00;;
37647;SDS011;23490;53.656;10.076;2023-02-26T06:18:18;3.30;;;0.80;;
37647;SDS011;23490;53.656;10.076;2023-02-26T06:20:43;4.25;;;0.88;;
37647;SDS011;23490;53.656;10.076;2023-02-26T06:23:08;2.58;;;0.77;;
37647;SDS011;23490;53.656;10.076;2023-02-26T06:25:34;5.45;;;0.90;;
37647;SDS011;23490;53.656;10.076;2023-02-26T06:27:59;4.55;;;1.55;;
37647;SDS011;23490;53.656;10.076;2023-02-26T06:30:24;5.03;;;1.00;;
37647;SDS011;23490;53.656;10.076;2023-02-26T06:32:50;3.47;;;0.77;;
37647;SDS011;23490;53.656;10.076;2023-02-26T06:35:15;4.68;;;1.23;;
37647;SDS011;23490;53.656;10.076;2023-02-26T06:37:40;3.33;;;1.02;;
37647;SDS011;23490;53.656;10.076;2023-02-26T06:40:06;4.70;;;1.02;;
37647;SDS011;23490;53.656;10.076;2023-02-26T06:42:34;5.22;;;1.02;;
37647;SDS011;23490;53.656;10.076;2023-02-26T06:45:00;2.92;;;0.60;;
37647;SDS011;23490;53.656;10.076;2023-02-26T06:47:26;3.55;;;0.73;;
37647;SDS011;23490;53.656;10.076;2023-02-26T06:49:52;3.53;;;0.90;;
37647;SDS011;23490;53.656;10.076;2023-02-26T06:52:17;7.25;;;1.00;;
37647;SDS011;23490;53.656;10.076;2023-02-26T06:54:43;8.63;;;1.08;;
37647;SDS011;23490;53.656;10.076;2023-02-26T06:57:09;1.65;;;0.70;;
37647;SDS011;23490;53.656;10.076;2023-02-26T06:59:35;1.73;;;0.70;;
37647;SDS011;23490;53.656;10.076;2023-02-26T07:02:00;3.67;;;1.30;;
37647;SDS011;23490;53.656;10.076;2023-02-26T07:04:27;7.75;;;1.35;;
37647;SDS011;23490;53.656;10.076;2023-02-26T07:06:52;5.45;;;1.17;;
37647;SDS011;23490;53.656;10.076;2023-02-26T07:09:18;3.15;;;1.08;;
37647;SDS011;23490;53.656;10.076;2023-02-26T07:11:44;4.50;;;0.63;;
37647;SDS011;23490;53.656;10.076;2023-02-26T07:14:09;3.67;;;0.90;;
37647;SDS011;23490;53.656;10.076;2023-02-26T07:16:36;6.22;;;0.95;;
37647;SDS011;23490;53.656;10.076;2023-02-26T07:19:01;1.85;;;0.63;;
37647;SDS011;23490;53.656;10.076;2023-02-26T07:21:27;4.88;;;0.90;;
37647;SDS011;23490;53.656;10.076;2023-02-26T07:23:52;3.50;;;1.08;;
37647;SDS011;23490;53.656;10.076;2023-02-26T07:26:18;2.25;;;0.98;;
37647;SDS011;23490;53.656;10.076;2023-02-26T07:28:45;4.60;;;0.73;;
37647;SDS011;23490;53.656;10.076;2023-02-26T07:31:10;4.38;;;1.20;;
37647;SDS011;23490;53.656;10.076;2023-02-26T07:33:35;2.13;;;0.80;;
37647;SDS011;23490;53.656;10.076;2023-02-26T07:36:02;2.10;;;0.93;;
37647;SDS011;23490;53.656;10.076;2023-02-26T07:38:28;3.85;;;0.93;;
37647;SDS011;23490;53.656;10.076;2023-02-26T07:40:55;1.42;;;0.63;;
37647;SDS011;23490;53.656;10.076;2023-02-26T07:43:21;3.28;;;0.80;;
37647;SDS011;23490;53.656;10.076;2023-02-26T07:45:51;2.85;;;1.20;;
37647;SDS011;23490;53.656;10.076;2023-02-26T07:48:18;4.88;;;1.00;;
37647;SDS011;23490;53.656;10.076;2023-02-26T07:50:45;3.55;;;1.00;;
37647;SDS011;23490;53.656;10.076;2023-02-26T07:53:10;1.67;;;1.15;;
37647;SDS011;23490;53.656;10.076;2023-02-26T07:55:36;4.38;;;1.38;;
37647;SDS011;23490;53.656;10.076;2023-02-26T07:58:01;5.78;;;1.35;;
37647;SDS011;23490;53.656;10.076;2023-02-26T08:00:27;2.75;;;1.33;;
37647;SDS011;23490;53.656;10.076;2023-02-26T08:02:52;3.75;;;1.30;;
37647;SDS011;23490;53.656;10.076;2023-02-26T08:05:18;4.60;;;1.00;;
37647;SDS011;23490;53.656;10.076;2023-02-26T08:07:44;5.43;;;1.25;;
37647;SDS011;23490;53.656;10.076;2023-02-26T08:10:10;4.13;;;1.15;;
37647;SDS011;23490;53.656;10.076;2023-02-26T08:12:36;2.30;;;0.98;;
37647;SDS011;23490;53.656;10.076;2023-02-26T08:15:02;6.25;;;1.35;;
37647;SDS011;23490;53.656;10.076;2023-02-26T08:17:28;5.25;;;1.40;;
37647;SDS011;23490;53.656;10.076;2023-02-26T08:19:53;3.63;;;1.13;;
37647;SDS011;23490;53.656;10.076;2023-02-26T08:22:19;6.65;;;1.45;;
37647;SDS011;23490;53.656;10.076;2023-02-26T08:24:44;3.70;;;1.10;;
37647;SDS011;23490;53.656;10.076;2023-02-26T08:27:10;3.28;;;0.93;;
37647;SDS011;23490;53.656;10.076;2023-02-26T08:29:36;3.13;;;0.82;;
37647;SDS011;23490;53.656;10.076;2023-02-26T08:32:02;5.25;;;1.10;;
37647;SDS011;23490;53.656;10.076;2023-02-26T08:34:27;1.88;;;0.85;;
37647;SDS011;23490;53.656;10.076;2023-02-26T08:36:53;2.10;;;0.98;;
37647;SDS011;23490;53.656;10.076;2023-02-26T08:39:19;1.55;;;0.73;;
37647;SDS011;23490;53.656;10.076;2023-02-26T08:41:44;3.45;;;0.77;;
37647;SDS011;23490;53.656;10.076;2023-02-26T08:44:09;5.55;;;1.05;;
37647;SDS011;23490;53.656;10.076;2023-02-26T08:46:35;1.40;;;0.80;;
37647;SDS011;23490;53.656;10.076;2023-02-26T08:49:01;2.28;;;0.82;;
37647;SDS011;23490;53.656;10.076;2023-02-26T08:51:26;1.83;;;0.50;;
37647;SDS011;23490;53.656;10.076;2023-02-26T08:53:51;2.55;;;0.80;;
37647;SDS011;23490;53.656;10.076;2023-02-26T08:56:19;4.07;;;1.00;;
37647;SDS011;23490;53.656;10.076;2023-02-26T08:58:45;3.85;;;0.65;;
37647;SDS011;23490;53.656;10.076;2023-02-26T09:01:10;2.45;;;0.47;;
37647;SDS011;23490;53.656;10.076;2023-02-26T09:03:38;2.50;;;0.60;;
37647;SDS011;23490;53.656;10.076;2023-02-26T09:06:04;0.68;;;0.40;;
37647;SDS011;23490;53.656;10.076;2023-02-26T09:08:30;1.83;;;0.55;;
37647;SDS011;23490;53.656;10.076;2023-02-26T09:11:00;2.08;;;0.50;;
37647;SDS011;23490;53.656;10.076;2023-02-26T09:13:26;1.17;;;0.40;;
37647;SDS011;23490;53.656;10.076;2023-02-26T09:15:53;4.72;;;0.50;;
37647;SDS011;23490;53.656;10.076;2023-02-26T09:18:18;1.55;;;0.70;;
37647;SDS011;23490;53.656;10.076;2023-02-26T09:20:44;0.73;;;0.38;;
37647;SDS011;23490;53.656;10.076;2023-02-26T09:23:10;4.15;;;1.08;;
37647;SDS011;23490;53.656;10.076;2023-02-26T09:25:35;0.25;;;0.25;;
37647;SDS011;23490;53.656;10.076;2023-02-26T09:28:01;1.83;;;0.50;;
37647;SDS011;23490;53.656;10.076;2023-02-26T09:30:27;1.08;;;0.43;;
37647;SDS011;23490;53.656;10.076;2023-02-26T09:32:53;0.80;;;0.30;;
37647;SDS011;23490;53.656;10.076;2023-02-26T09:35:19;3.92;;;1.35;;
37647;SDS011;23490;53.656;10.076;2023-02-26T09:37:46;2.78;;;0.50;;
37647;SDS011;23490;53.656;10.076;2023-02-26T09:40:19;0.88;;;0.50;;
37647;SDS011;23490;53.656;10.076;2023-02-26T09:45:39;2.42;;;0.55;;
37647;SDS011;23490;53.656;10.076;2023-02-26T09:48:08;3.22;;;0.60;;
37647;SDS011;23490;53.656;10.076;2023-02-26T09:50:49;2.85;;;0.40;;
37647;SDS011;23490;53.656;10.076;2023-02-26T09:53:28;0.90;;;0.32;;
37647;SDS011;23490;53.656;10.076;2023-02-26T09:55:58;2.28;;;0.70;;
37647;SDS011;23490;53.656;10.076;2023-02-26T09:58:37;2.25;;;0.32;;
37647;SDS011;23490;53.656;10.076;2023-02-26T10:04:10;1.48;;;0.52;;
37647;SDS011;23490;53.656;10.076;2023-02-26T10:12:16;2.05;;;0.45;;
37647;SDS011;23490;53.656;10.076;2023-02-26T10:14:54;2.28;;;0.40;;
37647;SDS011;23490;53.656;10.076;2023-02-26T10:17:41;2.38;;;0.60;;
37647;SDS011;23490;53.656;10.076;2023-02-26T10:20:48;1.30;;;0.40;;
37647;SDS011;23490;53.656;10.076;2023-02-26T10:23:34;0.82;;;0.43;;
37647;SDS011;23490;53.656;10.076;2023-02-26T10:31:36;4.13;;;0.93;;
37647;SDS011;23490;53.656;10.076;2023-02-26T10:37:18;2.17;;;0.60;;
37647;SDS011;23490;53.656;10.076;2023-02-26T10:42:39;3.55;;;0.93;;
37647;SDS011;23490;53.656;10.076;2023-02-26T10:50:34;1.75;;;0.50;;
37647;SDS011;23490;53.656;10.076;2023-02-26T10:53:02;1.88;;;0.52;;
37647;SDS011;23490;53.656;10.076;2023-02-26T10:55:29;1.50;;;0.68;;
37647;SDS011;23490;53.656;10.076;2023-02-26T10:58:10;1.80;;;0.43;;
37647;SDS011;23490;53.656;10.076;2023-02-26T11:00:41;4.38;;;1.30;;
37647;SDS011;23490;53.656;10.076;2023-02-26T11:03:13;1.95;;;0.60;;
37647;SDS011;23490;53.656;10.076;2023-02-26T11:05:47;2.35;;;0.90;;
37647;SDS011;23490;53.656;10.076;2023-02-26T11:08:24;4.60;;;0.60;;
37647;SDS011;23490;53.656;10.076;2023-02-26T11:10:55;4.65;;;0.90;;
37647;SDS011;23490;53.656;10.076;2023-02-26T11:13:26;2.72;;;0.57;;
37647;SDS011;23490;53.656;10.076;2023-02-26T11:15:54;2.40;;;0.70;;
37647;SDS011;23490;53.656;10.076;2023-02-26T11:21:15;2.97;;;0.70;;
37647;SDS011;23490;53.656;10.076;2023-02-26T11:23:43;2.70;;;0.60;;
37647;SDS011;23490;53.656;10.076;2023-02-26T11:26:17;2.97;;;0.73;;
37647;SDS011;23490;53.656;10.076;2023-02-26T11:28:45;2.67;;;0.90;;
37647;SDS011;23490;53.656;10.076;2023-02-26T11:31:19;2.78;;;0.75;;
37647;SDS011;23490;53.656;10.076;2023-02-26T11:33:50;3.17;;;0.70;;
37647;SDS011;23490;53.656;10.076;2023-02-26T11:36:20;2.80;;;0.90;;
37647;SDS011;23490;53.656;10.076;2023-02-26T11:38:56;2.47;;;1.10;;
37647;SDS011;23490;53.656;10.076;2023-02-26T11:41:25;3.45;;;1.00;;
37647;SDS011;23490;53.656;10.076;2023-02-26T11:44:04;2.97;;;1.00;;
37647;SDS011;23490;53.656;10.076;2023-02-26T11:46:42;2.33;;;0.70;;
37647;SDS011;23490;53.656;10.076;2023-02-26T11:49:14;2.40;;;0.75;;
37647;SDS011;23490;53.656;10.076;2023-02-26T11:51:46;4.90;;;0.70;;
37647;SDS011;23490;53.656;10.076;2023-02-26T11:54:23;1.88;;;0.73;;
37647;SDS011;23490;53.656;10.076;2023-02-26T11:56:59;4.35;;;0.73;;
37647;SDS011;23490;53.656;10.076;2023-02-26T11:59:39;3.65;;;1.30;;
37647;SDS011;23490;53.656;10.076;2023-02-26T12:02:12;2.90;;;1.17;;
37647;SDS011;23490;53.656;10.076;2023-02-26T12:04:41;2.60;;;0.88;;
37647;SDS011;23490;53.656;10.076;2023-02-26T12:09:38;3.83;;;0.95;;
37647;SDS011;23490;53.656;10.076;2023-02-26T12:12:18;2.88;;;0.90;;
37647;SDS011;23490;53.656;10.076;2023-02-26T12:20:52;2.50;;;0.90;;
37647;SDS011;23490;53.656;10.076;2023-02-26T12:26:33;2.17;;;0.70;;
37647;SDS011;23490;53.656;10.076;2023-02-26T12:29:22;3.60;;;0.93;;
37647;SDS011;23490;53.656;10.076;2023-02-26T12:34:37;6.47;;;1.48;;
37647;SDS011;23490;53.656;10.076;2023-02-26T12:37:25;1.67;;;0.73;;
37647;SDS011;23490;53.656;10.076;2023-02-26T12:40:04;2.13;;;0.80;;
37647;SDS011;23490;53.656;10.076;2023-02-26T12:43:09;3.42;;;1.13;;
37647;SDS011;23490;53.656;10.076;2023-02-26T12:51:10;2.50;;;0.80;;
37647;SDS011;23490;53.656;10.076;2023-02-26T12:56:26;1.65;;;0.80;;
37647;SDS011;23490;53.656;10.076;2023-02-26T12:59:16;1.05;;;0.65;;
37647;SDS011;23490;53.656;10.076;2023-02-26T13:07:50;5.53;;;1.25;;
37647;SDS011;23490;53.656;10.076;2023-02-26T13:10:25;2.70;;;0.88;;
37647;SDS011;23490;53.656;10.076;2023-02-26T13:15:54;2.47;;;0.70;;
37647;SDS011;23490;53.656;10.076;2023-02-26T13:18:47;3.60;;;0.90;;
37647;SDS011;23490;53.656;10.076;2023-02-26T13:21:37;3.10;;;0.52;;
37647;SDS011;23490;53.656;10.076;2023-02-26T13:26:49;1.63;;;0.80;;
37647;SDS011;23490;53.656;10.076;2023-02-26T13:29:19;2.22;;;1.00;;
37647;SDS011;23490;53.656;10.076;2023-02-26T13:32:02;2.45;;;0.70;;
37647;SDS011;23490;53.656;10.076;2023-02-26T13:34:41;2.33;;;0.70;;
37647;SDS011;23490;53.656;10.076;2023-02-26T13:37:17;2.72;;;0.65;;
37647;SDS011;23490;53.656;10.076;2023-02-26T13:39:50;4.10;;;0.57;;
37647;SDS011;23490;53.656;10.076;2023-02-26T13:54:00;4.20;;;0.52;;
37647;SDS011;23490;53.656;10.076;2023-02-26T14:06:45;4.93;;;1.20;;
37647;SDS011;23490;53.656;10.076;2023-02-26T14:09:43;1.50;;;0.52;;
37647;SDS011;23490;53.656;10.076;2023-02-26T14:12:32;4.15;;;0.77;;
37647;SDS011;23490;53.656;10.076;2023-02-26T14:17:49;2.80;;;0.77;;
37647;SDS011;23490;53.656;10.076;2023-02-26T14:20:25;5.28;;;1.55;;
37647;SDS011;23490;53.656;10.076;2023-02-26T14:23:38;4.88;;;1.00;;
37647;SDS011;23490;53.656;10.076;2023-02-26T14:25:55;3.95;;;1.13;;
37647;SDS011;23490;53.656;10.076;2023-02-26T14:28:34;4.03;;;1.00;;
37647;SDS011;23490;53.656;10.076;2023-02-26T14:31:11;2.33;;;0.43;;
37647;SDS011;23490;53.656;10.076;2023-02-26T14:39:05;3.53;;;0.95;;
37647;SDS011;23490;53.656;10.076;2023-02-26T14:41:38;3.90;;;1.45;;
37647;SDS011;23490;53.656;10.076;2023-02-26T14:46:46;3.13;;;0.70;;
37647;SDS011;23490;53.656;10.076;2023-02-26T14:49:21;4.43;;;0.90;;
37647;SDS011;23490;53.656;10.076;2023-02-26T14:54:42;2.00;;;0.80;;
37647;SDS011;23490;53.656;10.076;2023-02-26T15:00:05;3.30;;;1.02;;
37647;SDS011;23490;53.656;10.076;2023-02-26T15:05:43;3.00;;;0.80;;
37647;SDS011;23490;53.656;10.076;2023-02-26T15:11:30;4.07;;;0.80;;
37647;SDS011;23490;53.656;10.076;2023-02-26T15:14:08;2.22;;;0.73;;
37647;SDS011;23490;53.656;10.076;2023-02-26T15:16:56;4.22;;;1.00;;
37647;SDS011;23490;53.656;10.076;2023-02-26T15:22:39;2.80;;;0.80;;
37647;SDS011;23490;53.656;10.076;2023-02-26T15:27:52;2.00;;;0.60;;
37647;SDS011;23490;53.656;10.076;2023-02-26T15:30:18;2.13;;;0.90;;
37647;SDS011;23490;53.656;10.076;2023-02-26T15:32:44;0.98;;;0.60;;
37647;SDS011;23490;53.656;10.076;2023-02-26T15:35:16;4.60;;;1.10;;
37647;SDS011;23490;53.656;10.076;2023-02-26T15:37:47;2.83;;;0.70;;
37647;SDS011;23490;53.656;10.076;2023-02-26T15:40:16;4.07;;;0.60;;
37647;SDS011;23490;53.656;10.076;2023-02-26T15:42:42;1.95;;;0.65;;
37647;SDS011;23490;53.656;10.076;2023-02-26T15:45:12;2.08;;;0.63;;
37647;SDS011;23490;53.656;10.076;2023-02-26T15:47:54;2.40;;;0.80;;
37647;SDS011;23490;53.656;10.076;2023-02-26T15:50:24;6.75;;;0.95;;
37647;SDS011;23490;53.656;10.076;2023-02-26T15:52:58;3.20;;;1.10;;
37647;SDS011;23490;53.656;10.076;2023-02-26T15:55:27;2.05;;;0.80;;
37647;SDS011;23490;53.656;10.076;2023-02-26T15:57:57;2.83;;;0.60;;
37647;SDS011;23490;53.656;10.076;2023-02-26T16:00:22;5.13;;;1.30;;
37647;SDS011;23490;53.656;10.076;2023-02-26T16:02:55;3.53;;;1.08;;
37647;SDS011;23490;53.656;10.076;2023-02-26T16:05:24;4.50;;;0.85;;
37647;SDS011;23490;53.656;10.076;2023-02-26T16:07:54;2.60;;;0.93;;
37647;SDS011;23490;53.656;10.076;2023-02-26T16:10:34;3.13;;;1.15;;
37647;SDS011;23490;53.656;10.076;2023-02-26T16:13:04;5.05;;;1.77;;
37647;SDS011;23490;53.656;10.076;2023-02-26T16:15:36;3.17;;;1.17;;
37647;SDS011;23490;53.656;10.076;2023-02-26T16:18:06;3.03;;;1.15;;
37647;SDS011;23490;53.656;10.076;2023-02-26T16:20:40;4.40;;;1.50;;
37647;SDS011;23490;53.656;10.076;2023-02-26T16:23:51;6.18;;;1.40;;
37647;SDS011;23490;53.656;10.076;2023-02-26T16:26:37;2.75;;;0.90;;
37647;SDS011;23490;53.656;10.076;2023-02-26T16:29:19;8.18;;;1.30;;
37647;SDS011;23490;53.656;10.076;2023-02-26T16:31:50;8.07;;;1.55;;
37647;SDS011;23490;53.656;10.076;2023-02-26T16:34:22;4.10;;;1.40;;
37647;SDS011;23490;53.656;10.076;2023-02-26T16:36:54;4.43;;;1.33;;
37647;SDS011;23490;53.656;10.076;2023-02-26T16:39:25;5.65;;;1.42;;
37647;SDS011;23490;53.656;10.076;2023-02-26T16:45:14;5.20;;;1.38;;
37647;SDS011;23490;53.656;10.076;2023-02-26T16:47:47;2.88;;;1.05;;
37647;SDS011;23490;53.656;10.076;2023-02-26T16:50:16;3.33;;;1.10;;
37647;SDS011;23490;53.656;10.076;2023-02-26T16:52:45;5.20;;;1.85;;
37647;SDS011;23490;53.656;10.076;2023-02-26T16:55:16;4.80;;;1.25;;
37647;SDS011;23490;53.656;10.076;2023-02-26T16:57:42;4.07;;;0.88;;
37647;SDS011;23490;53.656;10.076;2023-02-26T17:00:12;3.55;;;0.85;;
37647;SDS011;23490;53.656;10.076;2023-02-26T17:02:53;4.28;;;1.20;;
37647;SDS011;23490;53.656;10.076;2023-02-26T17:05:29;4.22;;;1.00;;
37647;SDS011;23490;53.656;10.076;2023-02-26T17:10:53;4.47;;;1.13;;
37647;SDS011;23490;53.656;10.076;2023-02-26T17:13:29;5.00;;;1.00;;
37647;SDS011;23490;53.656;10.076;2023-02-26T17:15:58;3.50;;;1.10;;
37647;SDS011;23490;53.656;10.076;2023-02-26T17:18:25;4.95;;;2.20;;
37647;SDS011;23490;53.656;10.076;2023-02-26T17:20:52;5.85;;;2.80;;
37647;SDS011;23490;53.656;10.076;2023-02-26T17:23:22;5.13;;;2.72;;
37647;SDS011;23490;53.656;10.076;2023-02-26T17:25:53;7.63;;;2.45;;
37647;SDS011;23490;53.656;10.076;2023-02-26T17:28:22;8.20;;;2.75;;
37647;SDS011;23490;53.656;10.076;2023-02-26T17:30:51;5.47;;;2.90;;
37647;SDS011;23490;53.656;10.076;2023-02-26T17:33:16;7.70;;;3.13;;
37647;SDS011;23490;53.656;10.076;2023-02-26T17:35:42;8.82;;;3.15;;